Time;durP1;ratioP1;P1;durP2;ratioP2;P2;SDS_P1;SDS_P2;PMS_P1;PMS_P2;Temp;Humidity;BMP_temperature;BMP_pressure;BME280_temperature;BME280_humidity;BME280_pressure;Samples;Min_cycle;Max_cycle;Signal;HPM_P1;HPM_P2
2021/11/21 00:01:49;;;;;;;8.70;5.28;;;;;;;14.80;64.81;100879.25;4840479;29;20493;-90
2021/11/21 00:04:14;;;;;;;15.75;5.88;;;;;;;14.72;64.49;100871.06;4840848;29;20038;-89
2021/11/21 00:06:39;;;;;;;10.50;4.28;;;;;;;14.55;64.47;100877.63;4840999;29;20507;-90
2021/11/21 00:09:05;;;;;;;7.05;3.38;;;;;;;14.59;64.58;100866.75;4840998;29;20030;-90
2021/11/21 00:11:30;;;;;;;5.60;3.53;;;;;;;14.62;64.44;100866.50;4840459;29;20038;-90
2021/11/21 00:13:56;;;;;;;7.82;4.10;;;;;;;14.40;64.74;100866.44;4840738;29;20117;-90
2021/11/21 00:16:21;;;;;;;8.93;3.40;;;;;;;14.41;64.48;100868.94;4840920;29;20057;-90
2021/11/21 00:18:47;;;;;;;6.38;3.13;;;;;;;14.27;65.01;100862.06;4840740;29;20040;-90
2021/11/21 00:21:12;;;;;;;9.90;3.80;;;;;;;13.94;65.46;100868.13;4842411;29;20038;-89
2021/11/21 00:23:38;;;;;;;10.95;4.10;;;;;;;14.01;65.77;100869.34;4844491;29;20509;-90
2021/11/21 00:26:04;;;;;;;9.90;4.35;;;;;;;13.74;67.01;100864.31;4844671;29;20037;-90
2021/11/21 00:28:29;;;;;;;15.55;3.63;;;;;;;13.79;66.66;100871.91;4843958;29;20038;-89
2021/11/21 00:30:55;;;;;;;11.77;2.92;;;;;;;13.69;67.08;100869.94;4844298;29;20036;-89
2021/11/21 00:33:20;;;;;;;9.73;2.42;;;;;;;13.58;66.58;100859.31;4844540;29;20121;-90
2021/11/21 00:35:46;;;;;;;4.13;1.63;;;;;;;13.95;64.73;100868.97;4844331;29;20066;-89
2021/11/21 00:38:12;;;;;;;6.40;1.75;;;;;;;14.10;64.49;100870.47;4843814;29;20581;-89
2021/11/21 00:40:37;;;;;;;8.45;1.83;;;;;;;14.15;64.10;100865.66;4844157;29;20030;-90
2021/11/21 00:43:03;;;;;;;8.25;1.85;;;;;;;14.20;63.95;100860.03;4843833;29;20038;-90
2021/11/21 00:45:32;;;;;;;9.75;1.38;;;;;;;14.24;63.76;100857.03;4843870;29;20508;-90
2021/11/21 00:47:58;;;;;;;9.02;1.77;;;;;;;14.21;63.96;100854.63;4843589;29;20026;-90
2021/11/21 00:50:27;;;;;;;6.78;1.38;;;;;;;14.28;63.55;100849.72;4843822;29;20057;-89
2021/11/21 00:52:59;;;;;;;6.72;1.27;;;;;;;14.31;63.93;100846.00;4843284;29;20079;-90
2021/11/21 00:55:34;;;;;;;;;;;;;;;14.36;63.91;100854.44;4844245;29;20037;-90
2021/11/21 00:57:59;;;;;;;3.92;1.00;;;;;;;14.34;63.39;100840.50;4843840;29;19917;-89
2021/11/21 01:00:24;;;;;;;10.98;1.60;;;;;;;14.32;63.36;100848.53;4843590;29;20037;-89
2021/11/21 01:02:50;;;;;;;6.32;1.30;;;;;;;14.31;64.02;100841.56;4843020;29;20087;-90
2021/11/21 01:05:15;;;;;;;7.47;2.28;;;;;;;14.32;63.77;100847.72;4843630;29;20026;-90
2021/11/21 01:07:41;;;;;;;8.15;1.50;;;;;;;14.29;63.82;100841.66;4843701;29;20038;-89
2021/11/21 01:10:16;;;;;;;11.18;1.83;;;;;;;14.39;63.96;100835.69;4843618;29;20405;-89
2021/11/21 01:12:42;;;;;;;8.27;1.80;;;;;;;14.24;63.98;100843.84;4842985;29;20086;-90
2021/11/21 01:15:10;;;;;;;11.95;1.80;;;;;;;14.19;64.42;100843.34;4843444;29;20478;-90
2021/11/21 01:17:36;;;;;;;6.07;1.77;;;;;;;14.20;63.94;100847.69;4843463;29;20457;-89
2021/11/21 01:20:02;;;;;;;9.38;2.22;;;;;;;14.25;64.35;100857.88;4843610;29;20030;-90
2021/11/21 01:22:28;;;;;;;11.48;1.75;;;;;;;14.04;64.69;100850.63;4842978;29;20034;-90
2021/11/21 01:24:55;;;;;;;7.72;2.03;;;;;;;14.28;64.19;100845.28;4843234;29;20030;-90
2021/11/21 01:27:20;;;;;;;13.18;2.75;;;;;;;14.22;64.26;100837.00;4843358;29;20038;-90
2021/11/21 01:29:46;;;;;;;8.30;1.77;;;;;;;14.32;64.00;100837.97;4843095;29;20029;-90
2021/11/21 01:32:11;;;;;;;10.18;1.90;;;;;;;14.29;63.65;100833.75;4842136;29;20042;-90
2021/11/21 01:34:37;;;;;;;10.48;1.77;;;;;;;13.96;64.24;100831.03;4842939;29;20118;-90
2021/11/21 01:37:02;;;;;;;4.55;1.30;;;;;;;14.20;63.58;100831.00;4842815;29;20030;-90
2021/11/21 01:39:27;;;;;;;9.68;1.63;;;;;;;14.15;62.83;100830.50;4843035;29;20417;-90
2021/11/21 01:41:53;;;;;;;12.75;1.58;;;;;;;13.98;62.87;100832.63;4841459;29;20033;-88
2021/11/21 01:44:18;;;;;;;6.40;1.10;;;;;;;14.13;61.80;100833.25;4842095;29;20378;-88
2021/11/21 01:46:44;;;;;;;12.38;2.05;;;;;;;14.16;61.92;100846.22;4842819;29;20091;-88
2021/11/21 01:49:11;;;;;;;7.93;1.52;;;;;;;14.03;62.43;100840.19;4846887;29;20026;-88
2021/11/21 01:51:36;;;;;;;7.68;1.48;;;;;;;13.96;62.25;100838.94;4861300;29;20370;-88
2021/11/21 01:54:04;;;;;;;12.88;1.77;;;;;;;13.96;61.96;100842.47;4841885;29;20041;-88
2021/11/21 01:56:30;;;;;;;11.95;1.40;;;;;;;13.97;61.94;100846.78;4842578;29;20038;-88
2021/11/21 01:58:55;;;;;;;12.30;1.92;;;;;;;14.08;62.03;100848.63;4842525;29;20037;-89
2021/11/21 02:01:22;;;;;;;9.57;1.85;;;;;;;14.29;61.35;100843.47;4847160;29;20540;-88
2021/11/21 02:03:48;;;;;;;9.10;1.90;;;;;;;14.14;61.42;100837.59;4857989;29;20041;-88
2021/11/21 02:06:13;;;;;;;11.20;2.05;;;;;;;13.98;61.79;100844.97;4842755;29;20401;-89
2021/11/21 02:08:39;;;;;;;11.55;1.77;;;;;;;13.98;61.40;100845.81;4842164;29;20171;-88
2021/11/21 02:11:06;;;;;;;14.50;1.77;;;;;;;13.89;61.77;100843.88;4842101;29;20469;-88
2021/11/21 02:13:31;;;;;;;8.27;1.55;;;;;;;13.92;61.59;100845.44;4842085;29;20042;-89
2021/11/21 02:15:57;;;;;;;14.15;2.38;;;;;;;13.97;61.47;100849.41;4850641;29;20476;-90
2021/11/21 02:18:22;;;;;;;17.33;2.55;;;;;;;13.87;61.52;100849.25;4844239;29;20034;-88
2021/11/21 02:20:53;;;;;;;10.70;2.08;;;;;;;14.09;61.03;100848.47;4846545;29;20083;-88
2021/11/21 02:23:19;;;;;;;15.32;1.73;;;;;;;14.20;61.01;100852.13;4847873;29;20126;-88
2021/11/21 02:25:44;;;;;;;13.57;1.55;;;;;;;14.02;61.36;100852.56;4850601;29;20493;-88
2021/11/21 02:28:10;;;;;;;9.55;1.85;;;;;;;13.98;61.07;100861.66;4857381;29;20029;-88
2021/11/21 02:30:37;;;;;;;12.43;1.42;;;;;;;13.89;60.77;100857.06;4852006;29;20049;-89
2021/11/21 02:33:08;;;;;;;10.95;1.55;;;;;;;13.73;61.57;100853.88;4846908;29;20033;-90
2021/11/21 02:35:38;;;;;;;7.60;1.27;;;;;;;13.85;60.45;100845.06;4849209;29;20033;-88
2021/11/21 02:38:03;;;;;;;7.95;1.23;;;;;;;13.86;60.46;100850.22;4856881;29;20265;-88
2021/11/21 02:40:29;;;;;;;9.52;1.65;;;;;;;13.91;60.11;100852.50;4853238;29;20044;-88
2021/11/21 02:42:54;;;;;;;11.05;1.88;;;;;;;13.78;60.57;100857.84;4844424;29;20095;-88
2021/11/21 02:45:20;;;;;;;12.63;1.92;;;;;;;13.75;60.83;100855.44;4847345;29;20105;-87
2021/11/21 02:47:46;;;;;;;7.13;1.45;;;;;;;13.73;60.78;100852.09;4848716;29;20038;-88
2021/11/21 02:50:17;;;;;;;9.85;1.23;;;;;;;13.56;60.99;100849.84;4843243;29;20462;-89
2021/11/21 02:52:43;;;;;;;9.70;2.10;;;;;;;13.69;60.56;100845.34;4851185;29;20117;-88
2021/11/21 02:55:09;;;;;;;13.95;1.52;;;;;;;13.58;60.44;100840.03;4851084;29;20412;-88
2021/11/21 02:57:34;;;;;;;15.77;2.15;;;;;;;13.36;61.08;100843.38;4846235;29;20029;-88
2021/11/21 03:00:02;;;;;;;9.82;1.40;;;;;;;13.49;61.06;100849.47;4851785;29;20030;-88
2021/11/21 03:02:27;;;;;;;13.38;2.35;;;;;;;13.31;61.07;100851.66;4843579;29;20037;-88
2021/11/21 03:04:53;;;;;;;14.15;1.80;;;;;;;13.39;60.79;100849.28;4851305;29;20045;-88
2021/11/21 03:07:20;;;;;;;9.00;1.52;;;;;;;13.42;60.64;100848.22;4844252;29;20481;-88
2021/11/21 03:09:47;;;;;;;8.95;1.23;;;;;;;13.36;60.49;100853.94;4849815;29;20088;-89
2021/11/21 03:12:13;;;;;;;12.45;2.28;;;;;;;13.26;60.74;100853.72;4843216;29;20040;-89
2021/11/21 03:14:38;;;;;;;11.65;2.22;;;;;;;13.17;62.08;100849.09;4850538;29;20396;-89
2021/11/21 03:17:04;;;;;;;7.10;1.50;;;;;;;13.20;61.61;100854.19;4843133;29;20401;-89
2021/11/21 03:19:30;;;;;;;11.98;1.83;;;;;;;13.17;61.77;100851.75;4849919;29;20029;-89
2021/11/21 03:21:56;;;;;;;12.00;1.88;;;;;;;13.05;62.18;100849.06;4847944;29;20037;-89
2021/11/21 03:24:21;;;;;;;7.35;1.38;;;;;;;13.08;61.62;100851.47;4843077;29;20050;-89
2021/11/21 03:26:47;;;;;;;14.18;1.58;;;;;;;13.04;61.86;100855.25;4846688;29;20030;-88
2021/11/21 03:29:13;;;;;;;9.80;1.48;;;;;;;13.02;61.65;100851.06;4842889;29;20505;-88
2021/11/21 03:31:39;;;;;;;10.60;1.40;;;;;;;12.90;62.15;100864.16;4846299;29;20026;-88
2021/11/21 03:34:05;;;;;;;10.88;2.15;;;;;;;12.93;61.96;100857.81;4841234;29;20033;-88
2021/11/21 03:36:32;;;;;;;11.10;1.42;;;;;;;12.88;61.78;100862.56;4845570;29;20504;-88
2021/11/21 03:38:59;;;;;;;8.73;1.25;;;;;;;12.87;62.27;100852.97;4847324;29;20446;-88
2021/11/21 03:41:25;;;;;;;11.02;1.80;;;;;;;12.85;61.73;100858.34;4854471;29;20053;-88
2021/11/21 03:43:50;;;;;;;7.45;1.42;;;;;;;12.67;62.00;100849.94;4842053;29;20054;-88
2021/11/21 03:46:16;;;;;;;9.60;1.92;;;;;;;12.65;61.91;100851.00;4846042;29;20473;-88
2021/11/21 03:48:41;;;;;;;16.52;1.58;;;;;;;12.63;61.66;100839.72;4846874;29;20484;-88
2021/11/21 03:51:07;;;;;;;8.77;1.48;;;;;;;12.44;61.97;100848.91;4851871;29;20037;-87
2021/11/21 03:53:32;;;;;;;6.28;1.35;;;;;;;12.21;62.29;100839.94;4842347;29;20441;-88
2021/11/21 03:55:58;;;;;;;13.70;1.63;;;;;;;12.26;62.51;100837.84;4849599;29;20502;-88
2021/11/21 03:58:23;;;;;;;7.50;1.35;;;;;;;12.20;62.50;100847.94;4852569;29;20037;-87
2021/11/21 04:00:49;;;;;;;7.18;1.75;;;;;;;12.33;62.46;100840.06;4857274;29;20473;-88
2021/11/21 04:03:16;;;;;;;12.85;1.83;;;;;;;12.39;62.17;100847.53;4853085;29;20069;-88
2021/11/21 04:05:42;;;;;;;7.72;1.30;;;;;;;12.24;62.03;100841.53;4855175;29;20060;-88
2021/11/21 04:08:08;;;;;;;7.25;1.20;;;;;;;12.25;61.83;100844.06;4852171;29;20076;-88
2021/11/21 04:10:34;;;;;;;13.30;1.67;;;;;;;12.21;62.40;100845.22;4858920;29;20068;-88
2021/11/21 04:13:00;;;;;;;7.25;1.83;;;;;;;12.27;62.32;100843.97;4853937;29;20504;-88
2021/11/21 04:15:26;;;;;;;14.45;2.20;;;;;;;12.23;61.93;100853.84;4857759;29;20085;-88
2021/11/21 04:17:51;;;;;;;11.65;1.58;;;;;;;12.16;61.77;100842.03;4846557;29;20021;-88
2021/11/21 04:20:16;;;;;;;8.65;1.48;;;;;;;12.22;61.44;100846.91;4857681;29;20032;-88
2021/11/21 04:22:42;;;;;;;4.80;1.55;;;;;;;12.27;61.54;100839.53;4856792;29;20038;-88
2021/11/21 04:25:08;;;;;;;12.55;2.05;;;;;;;12.33;61.01;100843.53;4853874;29;20018;-89
2021/11/21 04:27:34;;;;;;;6.55;1.45;;;;;;;12.17;61.37;100843.72;4847956;29;20097;-89
2021/11/21 04:30:00;;;;;;;9.13;1.48;;;;;;;12.08;61.41;100839.94;4855810;29;20036;-89
2021/11/21 04:32:26;;;;;;;8.82;1.05;;;;;;;12.29;60.76;100836.78;4849747;29;20113;-89
2021/11/21 04:34:52;;;;;;;8.00;1.02;;;;;;;12.26;60.88;100844.88;4850411;29;20443;-89
2021/11/21 04:37:18;;;;;;;10.70;1.23;;;;;;;12.26;60.74;100842.25;4851703;29;20022;-89
2021/11/21 04:39:44;;;;;;;6.53;1.08;;;;;;;12.25;60.22;100840.59;4853567;29;20391;-89
2021/11/21 04:42:10;;;;;;;12.27;1.52;;;;;;;12.12;60.26;100843.19;4852512;29;20043;-89
2021/11/21 04:44:35;;;;;;;7.05;1.25;;;;;;;12.13;60.13;100833.53;4855723;29;20373;-88
2021/11/21 04:47:00;;;;;;;8.27;1.10;;;;;;;12.02;60.87;100828.97;4853322;29;20042;-89
2021/11/21 04:49:26;;;;;;;11.10;1.33;;;;;;;12.03;60.62;100822.78;4851974;29;20113;-89
2021/11/21 04:51:51;;;;;;;11.32;1.20;;;;;;;12.11;60.63;100833.63;4852550;29;20485;-88
2021/11/21 04:54:20;;;;;;;6.20;1.27;;;;;;;11.83;61.21;100830.19;4852710;29;20077;-89
2021/11/21 04:56:47;;;;;;;5.38;1.00;;;;;;;11.87;61.02;100836.09;4851069;29;20057;-89
2021/11/21 04:59:14;;;;;;;10.57;1.70;;;;;;;11.85;60.63;100825.66;4850490;29;20116;-89
2021/11/21 05:01:40;;;;;;;9.27;1.33;;;;;;;11.89;60.62;100831.59;4845915;29;20057;-89
2021/11/21 05:04:05;;;;;;;8.25;1.00;;;;;;;11.93;60.55;100837.47;4843038;29;20495;-89
2021/11/21 05:06:31;;;;;;;7.45;1.13;;;;;;;11.83;60.19;100847.75;4846064;29;20041;-89
2021/11/21 05:08:57;;;;;;;5.93;1.60;;;;;;;11.75;60.30;100847.41;4852462;29;20477;-89
2021/11/21 05:11:22;;;;;;;5.78;1.38;;;;;;;11.80;60.27;100846.16;4851711;29;20041;-89
2021/11/21 05:13:47;;;;;;;3.40;1.10;;;;;;;11.70;60.72;100835.41;4850001;29;20656;-89
2021/11/21 05:16:13;;;;;;;6.75;1.70;;;;;;;11.71;60.98;100836.25;4851086;29;20036;-89
2021/11/21 05:18:38;;;;;;;7.43;0.98;;;;;;;11.63;60.86;100833.25;4852342;29;20026;-89
2021/11/21 05:21:04;;;;;;;8.32;1.05;;;;;;;11.48;60.98;100838.59;4851473;29;20030;-89
2021/11/21 05:23:29;;;;;;;5.97;1.25;;;;;;;11.60;60.85;100836.94;4852836;29;20038;-88
2021/11/21 05:25:54;;;;;;;10.75;1.42;;;;;;;11.67;61.04;100847.91;4847720;29;20034;-89
2021/11/21 05:28:20;;;;;;;4.35;0.90;;;;;;;11.67;60.70;100851.41;4850627;29;20041;-89
2021/11/21 05:30:48;;;;;;;10.93;1.23;;;;;;;11.56;60.47;100855.66;4852784;29;20038;-89
2021/11/21 05:33:14;;;;;;;9.55;1.08;;;;;;;11.56;60.59;100842.53;4847343;29;20045;-89
2021/11/21 05:35:40;;;;;;;7.93;1.30;;;;;;;11.23;61.44;100851.63;4851007;29;20030;-89
2021/11/21 05:38:05;;;;;;;5.13;1.00;;;;;;;11.07;62.20;100844.69;4849908;29;20572;-89
2021/11/21 05:40:31;;;;;;;9.15;1.23;;;;;;;11.15;61.84;100844.22;4851259;29;20059;-88
2021/11/21 05:42:56;;;;;;;8.02;1.58;;;;;;;11.17;61.73;100852.00;4850733;29;20126;-89
2021/11/21 05:45:22;;;;;;;8.75;1.05;;;;;;;11.03;62.23;100842.38;4849389;29;20062;-89
2021/11/21 05:47:47;;;;;;;9.15;1.10;;;;;;;10.95;62.18;100844.66;4854915;29;20094;-89
2021/11/21 05:50:13;;;;;;;10.68;1.83;;;;;;;11.05;62.07;100845.75;4846687;29;20042;-89
2021/11/21 05:52:50;;;;;;;7.03;0.85;;;;;;;11.14;61.76;100834.66;4850378;29;20102;-89
2021/11/21 05:55:18;;;;;;;11.90;1.40;;;;;;;10.85;62.29;100839.13;4850476;29;20030;-89
2021/11/21 05:57:44;;;;;;;8.73;1.17;;;;;;;11.10;61.62;100841.06;4853264;29;20558;-89
2021/11/21 06:00:13;;;;;;;9.05;2.65;;;;;;;11.21;61.14;100848.25;4848586;29;20142;-89
2021/11/21 06:02:39;;;;;;;6.18;1.30;;;;;;;11.06;61.31;100848.28;4853321;29;20029;-88
2021/11/21 06:05:06;;;;;;;3.10;0.80;;;;;;;11.14;61.51;100858.31;4848043;29;20045;-89
2021/11/21 06:07:31;;;;;;;5.50;1.60;;;;;;;11.07;61.32;100855.22;4850588;29;20026;-89
2021/11/21 06:09:57;;;;;;;3.17;0.73;;;;;;;10.84;62.23;100842.66;4849458;29;20022;-89
2021/11/21 06:12:22;;;;;;;4.57;0.80;;;;;;;11.00;61.52;100838.16;4849353;29;20030;-89
2021/11/21 06:14:47;;;;;;;5.63;1.00;;;;;;;11.00;61.43;100843.41;4851401;29;20608;-89
2021/11/21 06:17:13;;;;;;;3.97;0.73;;;;;;;10.98;61.66;100853.19;4850505;29;20037;-89
2021/11/21 06:19:39;;;;;;;7.78;1.10;;;;;;;11.00;61.36;100851.31;4852798;29;20037;-89
2021/11/21 06:22:05;;;;;;;4.05;0.90;;;;;;;11.00;61.17;100847.81;4850217;29;20086;-88
2021/11/21 06:24:31;;;;;;;6.53;0.88;;;;;;;10.98;61.31;100847.06;4847585;29;20484;-89
2021/11/21 06:26:56;;;;;;;7.85;1.27;;;;;;;10.96;61.00;100843.69;4849236;29;20030;-88
2021/11/21 06:29:23;;;;;;;6.60;0.90;;;;;;;10.88;61.58;100841.53;4851874;29;20045;-89
2021/11/21 06:31:49;;;;;;;4.43;1.30;;;;;;;10.71;61.85;100843.44;4852743;29;20113;-89
2021/11/21 06:34:15;;;;;;;5.32;1.95;;;;;;;10.88;61.60;100837.16;4847490;29;20113;-88
2021/11/21 06:36:41;;;;;;;9.02;0.90;;;;;;;10.65;62.35;100846.44;4848977;29;20022;-88
2021/11/21 06:39:06;;;;;;;3.85;0.73;;;;;;;10.86;61.92;100843.41;4849498;29;20442;-89
2021/11/21 06:41:34;;;;;;;3.63;0.77;;;;;;;10.89;61.19;100846.69;4846357;29;20036;-88
2021/11/21 06:43:59;;;;;;;7.63;1.00;;;;;;;10.86;61.50;100846.91;4852811;29;20032;-89
2021/11/21 06:46:25;;;;;;;6.63;1.10;;;;;;;10.90;61.30;100845.78;4852496;29;20034;-88
2021/11/21 06:48:50;;;;;;;3.42;0.70;;;;;;;10.89;61.27;100825.69;4853515;29;20453;-89
2021/11/21 06:51:15;;;;;;;5.63;1.25;;;;;;;10.87;61.37;100835.44;4844320;29;20122;-89
2021/11/21 06:53:43;;;;;;;11.32;0.98;;;;;;;10.81;61.49;100825.31;4844232;29;20034;-89
2021/11/21 06:56:08;;;;;;;8.00;1.05;;;;;;;10.70;61.48;100841.75;4848247;29;20132;-89
2021/11/21 06:58:33;;;;;;;7.30;1.92;;;;;;;10.76;61.33;100837.03;4848141;29;20105;-88
2021/11/21 07:00:59;;;;;;;6.75;0.98;;;;;;;10.71;61.16;100843.44;4851070;29;20664;-89
2021/11/21 07:03:24;;;;;;;5.43;0.95;;;;;;;10.85;61.19;100850.47;4845590;29;20378;-89
2021/11/21 07:05:49;;;;;;;7.75;1.00;;;;;;;10.66;61.35;100849.91;4849520;29;20022;-89
2021/11/21 07:08:16;;;;;;;6.75;1.08;;;;;;;10.64;61.05;100850.00;4846771;29;20041;-89
2021/11/21 07:10:41;;;;;;;3.63;0.70;;;;;;;10.71;60.86;100855.72;4845928;29;20041;-89
2021/11/21 07:13:07;;;;;;;6.70;1.00;;;;;;;10.69;60.77;100853.19;4851130;29;20021;-89
2021/11/21 07:15:32;;;;;;;11.02;1.15;;;;;;;10.71;60.92;100855.72;4850691;29;20052;-88
2021/11/21 07:17:57;;;;;;;7.20;1.10;;;;;;;10.61;60.79;100863.31;4846750;29;20018;-89
2021/11/21 07:20:23;;;;;;;5.30;0.90;;;;;;;10.57;61.15;100859.19;4844090;29;20393;-89
2021/11/21 07:22:52;;;;;;;5.25;0.82;;;;;;;10.59;61.11;100854.69;4846136;29;20100;-90
2021/11/21 07:25:19;;;;;;;5.65;0.80;;;;;;;10.55;61.28;100844.47;4851984;29;20037;-90
2021/11/21 07:27:45;;;;;;;8.30;1.40;;;;;;;10.42;61.24;100860.94;4848114;29;20044;-89
2021/11/21 07:30:14;;;;;;;7.72;1.02;;;;;;;10.26;62.35;100866.25;4846548;29;20497;-89
2021/11/21 07:32:39;;;;;;;4.78;1.10;;;;;;;10.32;62.01;100870.31;4849348;29;20392;-87
2021/11/21 07:35:05;;;;;;;11.43;1.55;;;;;;;10.42;62.03;100862.75;4850999;29;20040;-87
2021/11/21 07:37:30;;;;;;;8.95;1.15;;;;;;;10.51;61.65;100856.94;4848112;29;20029;-88
2021/11/21 07:39:56;;;;;;;9.00;1.02;;;;;;;10.37;62.25;100856.91;4845545;29;20030;-89
2021/11/21 07:42:21;;;;;;;9.85;1.83;;;;;;;10.58;61.52;100876.63;4849936;29;20034;-87
2021/11/21 07:44:47;;;;;;;3.63;1.05;;;;;;;10.57;61.22;100880.19;4849427;29;20543;-88
2021/11/21 07:47:13;;;;;;;7.43;0.95;;;;;;;10.54;61.38;100880.38;4847883;29;20085;-88
2021/11/21 07:49:38;;;;;;;8.05;1.08;;;;;;;10.62;61.27;100866.78;4846603;29;20026;-88
2021/11/21 07:52:04;;;;;;;5.70;1.05;;;;;;;10.51;61.63;100872.69;4848112;29;20034;-88
2021/11/21 07:54:29;;;;;;;4.10;0.85;;;;;;;10.61;61.48;100892.22;4850059;29;20034;-89
2021/11/21 07:56:54;;;;;;;8.93;1.30;;;;;;;10.61;61.39;100892.22;4851750;29;20081;-89
2021/11/21 07:59:20;;;;;;;5.35;1.13;;;;;;;10.38;61.67;100885.69;4847992;29;20497;-88
2021/11/21 08:01:47;;;;;;;9.02;1.85;;;;;;;10.55;61.60;100876.00;4848406;29;20118;-88
2021/11/21 08:04:12;;;;;;;4.57;1.30;;;;;;;10.57;61.23;100895.97;4850501;29;20073;-88
2021/11/21 08:06:38;;;;;;;10.13;1.42;;;;;;;10.55;61.66;100904.88;4841424;29;20665;-88
2021/11/21 08:09:03;;;;;;;13.48;1.13;;;;;;;10.48;61.39;100901.75;4838779;29;20029;-89
2021/11/21 08:11:28;;;;;;;6.40;0.80;;;;;;;10.58;61.12;100899.41;4838641;29;20038;-89
2021/11/21 08:13:54;;;;;;;6.30;1.23;;;;;;;10.67;61.08;100902.34;4838669;29;20057;-88
2021/11/21 08:16:19;;;;;;;5.93;1.25;;;;;;;10.77;61.00;100913.13;4838920;29;20116;-87
2021/11/21 08:18:45;;;;;;;9.20;1.40;;;;;;;10.69;61.18;100928.50;4838148;29;20094;-87
2021/11/21 08:21:10;;;;;;;9.30;1.33;;;;;;;10.61;61.11;100918.47;4839164;29;20041;-87
2021/11/21 08:23:35;;;;;;;3.42;0.77;;;;;;;10.91;60.74;100917.53;4839658;29;20121;-89
2021/11/21 08:26:01;;;;;;;9.68;1.35;;;;;;;11.03;60.56;100918.56;4844860;29;20022;-91
2021/11/21 08:28:26;;;;;;;11.27;1.35;;;;;;;10.71;61.15;100921.38;4847388;29;20465;-89
2021/11/21 08:30:51;;;;;;;8.27;0.88;;;;;;;10.78;60.89;100927.97;4849098;29;20030;-89
2021/11/21 08:33:17;;;;;;;5.50;0.80;;;;;;;10.84;60.99;100926.72;4844948;29;20078;-89
2021/11/21 08:35:43;;;;;;;8.32;1.20;;;;;;;10.61;61.73;100928.97;4848178;29;20154;-91
2021/11/21 08:38:08;;;;;;;10.43;1.30;;;;;;;10.61;61.75;100921.09;4850065;29;20033;-91
2021/11/21 08:40:33;;;;;;;11.38;1.15;;;;;;;10.44;61.49;100932.59;4850527;29;20044;-92
2021/11/21 08:43:01;;;;;;;5.07;1.45;;;;;;;10.47;62.30;100936.84;4852173;29;20034;-91
2021/11/21 08:45:32;;;;;;;4.85;0.98;;;;;;;10.52;62.08;100940.00;4848762;29;20036;-91
2021/11/21 08:47:58;;;;;;;8.98;2.15;;;;;;;10.55;61.92;100945.09;4851714;29;20038;-89
2021/11/21 08:50:24;;;;;;;5.05;1.00;;;;;;;10.59;62.19;100935.25;4853078;29;20117;-90
2021/11/21 08:52:49;;;;;;;4.35;0.80;;;;;;;10.51;62.16;100936.53;4851097;29;20105;-90
2021/11/21 08:55:15;;;;;;;7.32;1.13;;;;;;;10.63;61.90;100942.00;4847993;29;20025;-88
2021/11/21 08:57:41;;;;;;;3.72;0.65;;;;;;;10.76;61.10;100952.63;4849590;29;20029;-89
2021/11/21 09:00:09;;;;;;;6.93;0.93;;;;;;;10.77;61.50;100949.06;4850602;29;20093;-89
2021/11/21 09:02:38;;;;;;;10.15;1.48;;;;;;;10.57;61.64;100948.47;4849854;29;20540;-90
2021/11/21 09:05:07;;;;;;;4.00;0.93;;;;;;;10.79;61.10;100950.66;4850419;29;20116;-90
2021/11/21 09:07:38;;;;;;;10.70;1.15;;;;;;;10.85;61.46;100963.41;4850365;29;20547;-90
2021/11/21 09:10:06;;;;;;;5.78;1.25;;;;;;;10.88;61.25;100968.50;4854280;29;20049;-90
2021/11/21 09:12:32;;;;;;;5.20;1.10;;;;;;;10.95;61.06;100958.47;4855164;29;20030;-90
2021/11/21 09:14:58;;;;;;;11.02;1.88;;;;;;;10.59;61.47;100972.84;4847183;29;20037;-90
2021/11/21 09:17:24;;;;;;;5.40;0.82;;;;;;;10.62;61.89;100975.28;4850708;29;20034;-90
2021/11/21 09:19:49;;;;;;;12.55;2.05;;;;;;;10.81;61.01;100967.16;4852122;29;20405;-90
2021/11/21 09:22:15;;;;;;;7.22;1.10;;;;;;;10.99;60.69;100975.72;4852093;29;20029;-90
2021/11/21 09:24:40;;;;;;;5.95;0.82;;;;;;;11.11;60.44;100966.25;4850884;29;20040;-89
2021/11/21 09:27:07;;;;;;;8.27;1.08;;;;;;;11.16;60.38;100965.97;4847624;29;20052;-90
2021/11/21 09:29:33;;;;;;;4.85;0.88;;;;;;;11.47;59.76;100978.91;4843872;29;20172;-89
2021/11/21 09:31:58;;;;;;;15.45;1.67;;;;;;;11.63;59.04;100975.28;4849634;29;20109;-89
2021/11/21 09:34:24;;;;;;;3.72;0.70;;;;;;;11.66;59.03;100980.38;4848404;29;20224;-88
2021/11/21 09:36:50;;;;;;;6.93;1.00;;;;;;;11.57;58.94;100991.47;4852344;29;20029;-89
2021/11/21 09:39:16;;;;;;;5.45;1.10;;;;;;;11.64;58.54;100990.16;4850552;29;20021;-89
2021/11/21 09:41:42;;;;;;;7.47;1.15;;;;;;;11.51;58.38;100983.03;4848965;29;20077;-89
2021/11/21 09:44:08;;;;;;;6.55;1.63;;;;;;;11.65;58.17;100983.94;4852792;29;20049;-89
2021/11/21 09:46:37;;;;;;;7.72;0.85;;;;;;;11.50;58.20;100986.59;4849784;29;20676;-89
2021/11/21 09:49:03;;;;;;;8.82;1.10;;;;;;;11.70;57.93;100992.38;4850855;29;20025;-88
2021/11/21 09:51:28;;;;;;;11.02;1.20;;;;;;;12.07;57.79;100997.97;4848727;29;20032;-89
2021/11/21 09:53:53;;;;;;;6.30;0.90;;;;;;;12.26;56.95;100989.69;4846997;29;20385;-89
2021/11/21 09:56:19;;;;;;;5.63;0.85;;;;;;;12.43;55.81;100999.13;4848763;29;20090;-89
2021/11/21 09:58:45;;;;;;;10.27;1.38;;;;;;;12.33;56.00;100998.06;4848755;29;20114;-90
2021/11/21 10:01:34;;;;;;;4.45;0.73;;;;;;;12.80;54.90;101015.13;4849444;29;20037;-90
2021/11/21 10:04:00;;;;;;;9.45;0.95;;;;;;;12.76;54.54;101018.91;4850198;29;20041;-90
2021/11/21 10:06:51;;;;;;;5.07;0.98;;;;;;;12.66;54.70;101011.63;4848261;29;20037;-91
2021/11/21 10:09:18;;;;;;;5.60;1.15;;;;;;;12.65;54.98;101014.34;4845402;29;20053;-91
2021/11/21 10:12:00;;;;;;;5.72;0.90;;;;;;;13.38;53.58;101016.41;4847573;29;20045;-90
2021/11/21 10:14:26;;;;;;;6.28;1.00;;;;;;;14.06;52.72;101022.16;4848829;29;20402;-94
2021/11/21 10:16:51;;;;;;;6.05;0.77;;;;;;;13.89;52.28;101026.00;4847541;29;20121;-93
2021/11/21 10:19:17;;;;;;;4.80;0.93;;;;;;;14.16;51.09;101032.88;4848021;29;20042;-90
2021/11/21 10:21:45;;;;;;;5.35;1.30;;;;;;;14.46;50.56;101027.97;4838633;29;20060;-90
2021/11/21 10:24:28;;;;;;;6.07;1.60;;;;;;;14.60;50.92;101028.78;4860700;29;20485;-90
2021/11/21 10:27:06;;;;;;;4.50;0.63;;;;;;;14.50;50.39;101038.31;4852162;29;20516;-89
2021/11/21 10:30:01;;;;;;;8.00;1.10;;;;;;;14.56;50.77;101032.59;4839924;29;20033;-92
2021/11/21 10:32:34;;;;;;;2.30;0.57;;;;;;;14.51;50.35;101032.06;4851657;29;20050;-91
2021/11/21 10:35:04;;;;;;;2.50;0.70;;;;;;;14.23;50.88;101021.75;4860361;29;20033;-93
2021/11/21 10:37:37;;;;;;;2.65;0.82;;;;;;;13.88;51.22;101030.44;4855045;29;20050;-92
2021/11/21 10:40:09;;;;;;;7.68;1.02;;;;;;;14.40;50.81;101036.34;4840189;29;20116;-92
2021/11/21 10:42:36;;;;;;;4.63;0.90;;;;;;;14.16;51.02;101035.50;4842006;29;20033;-92
2021/11/21 10:45:02;;;;;;;4.32;0.60;;;;;;;14.14;51.23;101038.28;4843246;29;20144;-92
2021/11/21 10:48:00;;;;;;;5.65;0.85;;;;;;;14.02;50.73;101032.09;4860179;29;20037;-92
2021/11/21 10:50:26;;;;;;;6.15;0.70;;;;;;;14.14;51.00;101030.34;4775975;29;20054;-91
2021/11/21 10:52:52;;;;;;;6.35;0.75;;;;;;;13.93;50.91;101024.81;4841141;29;20568;-92
2021/11/21 10:55:17;;;;;;;2.70;0.50;;;;;;;14.44;50.75;101029.06;4841813;29;20117;-92
2021/11/21 10:57:43;;;;;;;7.72;0.95;;;;;;;14.67;50.71;101028.22;4841569;29;20030;-92
2021/11/21 11:00:23;;;;;;;3.03;0.50;;;;;;;14.87;50.03;101034.63;4841713;29;20061;-91
2021/11/21 11:02:50;;;;;;;5.57;0.90;;;;;;;14.66;49.72;101020.38;4841743;29;20073;-91
2021/11/21 11:05:24;;;;;;;5.57;0.65;;;;;;;14.87;49.43;101028.50;4849002;29;20073;-92
2021/11/21 11:07:54;;;;;;;4.57;0.85;;;;;;;14.88;49.70;101024.88;4852909;29;20025;-93
2021/11/21 11:10:24;;;;;;;4.28;0.80;;;;;;;15.22;49.16;101020.47;4848656;29;20060;-92
2021/11/21 11:12:54;;;;;;;5.22;0.95;;;;;;;15.89;47.65;101023.25;4849522;29;20055;-94
2021/11/21 11:15:21;;;;;;;3.40;1.25;;;;;;;16.11;47.21;101025.00;4847919;29;20045;-91
2021/11/21 11:17:47;;;;;;;4.95;1.20;;;;;;;16.39;46.25;101028.84;4850259;29;20030;-92
2021/11/21 11:20:17;;;;;;;7.45;1.20;;;;;;;16.79;46.38;101014.94;4848940;29;20057;-89
2021/11/21 11:22:43;;;;;;;4.05;1.02;;;;;;;17.23;45.70;101028.91;4855626;29;20484;-90